createdAt,value
2018-06-08T00:00:54.171Z,964.73
2018-06-08T00:01:54.126Z,964.68
2018-06-08T00:02:54.085Z,964.73
2018-06-08T00:03:54.066Z,964.69
2018-06-08T00:04:53.998Z,964.69
2018-06-08T00:05:53.962Z,964.69
2018-06-08T00:06:53.910Z,964.64
2018-06-08T00:07:53.899Z,964.66
2018-06-08T00:08:53.863Z,964.64
2018-06-08T00:09:53.782Z,964.66
2018-06-08T00:10:53.763Z,964.64
2018-06-08T00:11:53.695Z,964.64
2018-06-08T00:12:53.652Z,964.63
2018-06-08T00:13:53.609Z,964.61
2018-06-08T00:14:53.564Z,964.61
2018-06-08T00:15:53.552Z,964.65
2018-06-08T00:16:53.478Z,964.60
2018-06-08T00:17:53.434Z,964.62
2018-06-08T00:18:53.388Z,964.59
2018-06-08T00:19:53.345Z,964.53
2018-06-08T00:20:53.344Z,964.52
2018-06-08T00:21:53.260Z,964.51
2018-06-08T00:22:53.216Z,964.50
2018-06-08T00:23:53.170Z,964.50
2018-06-08T00:24:53.127Z,964.52
2018-06-08T00:25:53.121Z,964.50
2018-06-08T00:26:53.045Z,964.54
2018-06-08T00:27:53.031Z,964.52
2018-06-08T00:28:52.957Z,964.59
2018-06-08T00:29:52.912Z,964.58
2018-06-08T00:30:52.868Z,964.54
2018-06-08T00:31:52.825Z,964.57
2018-06-08T00:32:52.805Z,964.56
2018-06-08T00:33:52.765Z,964.59
2018-06-08T00:34:52.698Z,964.58
2018-06-08T00:35:52.687Z,964.57
2018-06-08T00:36:52.605Z,964.54
2018-06-08T00:37:52.562Z,964.51
2018-06-08T00:38:52.519Z,964.52
2018-06-08T00:39:52.474Z,964.52
2018-06-08T00:40:52.462Z,964.51
2018-06-08T00:41:52.395Z,964.51
2018-06-08T00:42:52.344Z,964.52
2018-06-08T00:43:52.301Z,964.55
2018-06-08T00:44:52.258Z,964.52
2018-06-08T00:45:52.243Z,964.51
2018-06-08T00:46:52.169Z,964.51
2018-06-08T00:47:52.160Z,964.52
2018-06-08T00:48:52.082Z,964.49
2018-06-08T00:49:52.037Z,964.49
2018-06-08T00:50:51.996Z,964.48
2018-06-08T00:51:51.956Z,964.45
2018-06-08T00:52:51.940Z,964.44
2018-06-08T00:53:51.865Z,964.45
2018-06-08T00:54:51.821Z,964.42
2018-06-08T00:55:51.775Z,964.43
2018-06-08T00:56:51.733Z,964.42
2018-06-08T00:57:51.720Z,964.40
2018-06-08T00:58:51.650Z,964.45
2018-06-08T00:59:51.634Z,964.41
2018-06-08T01:00:51.563Z,964.46
2018-06-08T01:01:51.516Z,964.44
2018-06-08T01:02:51.496Z,964.42
2018-06-08T01:03:51.428Z,964.43
2018-06-08T01:04:51.388Z,964.41
2018-06-08T01:05:51.339Z,964.37
2018-06-08T01:06:51.296Z,964.38
2018-06-08T01:07:51.276Z,964.34
2018-06-08T01:08:51.208Z,964.27
2018-06-08T01:09:51.166Z,964.27
2018-06-08T01:10:51.126Z,964.26
2018-06-08T01:11:51.079Z,964.27
2018-06-08T01:12:51.059Z,964.26
2018-06-08T01:13:50.989Z,964.24
2018-06-08T01:14:50.946Z,964.24
2018-06-08T01:15:50.901Z,964.21
2018-06-08T01:16:50.858Z,964.20
2018-06-08T01:17:50.844Z,964.22
2018-06-08T01:18:50.771Z,964.22
2018-06-08T01:19:50.728Z,964.23
2018-06-08T01:20:50.687Z,964.19
2018-06-08T01:21:50.639Z,964.19
2018-06-08T01:22:50.635Z,964.23
2018-06-08T01:23:50.550Z,964.19
2018-06-08T01:24:50.507Z,964.19
2018-06-08T01:25:50.465Z,964.22
2018-06-08T01:26:50.420Z,964.21
2018-06-08T01:27:50.421Z,964.18
2018-06-08T01:28:50.331Z,964.17
2018-06-08T01:29:50.291Z,964.15
2018-06-08T01:30:50.243Z,964.20
2018-06-08T01:31:50.200Z,964.20
2018-06-08T01:32:50.198Z,964.19
2018-06-08T01:33:50.113Z,964.19
2018-06-08T01:34:50.069Z,964.20
2018-06-08T01:35:50.082Z,964.19
2018-06-08T01:36:49.981Z,964.22
2018-06-08T01:37:49.960Z,964.18
2018-06-08T01:38:49.892Z,964.19
2018-06-08T01:39:49.880Z,964.17
2018-06-08T01:40:49.810Z,964.19
2018-06-08T01:41:49.765Z,964.18
2018-06-08T01:42:49.757Z,964.22
2018-06-08T01:43:49.683Z,964.21
2018-06-08T01:44:49.633Z,964.16
2018-06-08T01:45:49.585Z,964.18
2018-06-08T01:46:49.545Z,964.16
2018-06-08T01:47:49.529Z,964.14
2018-06-08T01:48:49.454Z,964.16
2018-06-08T01:49:49.411Z,964.13
2018-06-08T01:50:49.367Z,964.15
2018-06-08T01:51:49.359Z,964.15
2018-06-08T01:52:49.276Z,964.12
2018-06-08T01:53:49.234Z,964.12
2018-06-08T01:54:49.189Z,964.10
2018-06-08T01:55:49.156Z,964.12
2018-06-08T01:56:49.134Z,964.12
2018-06-08T01:57:49.059Z,964.11
2018-06-08T01:58:49.013Z,964.11
2018-06-08T01:59:48.969Z,964.12
2018-06-08T02:00:48.987Z,964.12
2018-06-08T02:01:48.880Z,964.11
2018-06-08T02:02:48.836Z,964.14
2018-06-08T02:03:48.795Z,964.15
2018-06-08T02:04:48.749Z,964.19
2018-06-08T02:05:48.754Z,964.18
2018-06-08T02:06:48.663Z,964.19
2018-06-08T02:07:48.616Z,964.21
2018-06-08T02:08:48.605Z,964.19
2018-06-08T02:09:48.530Z,964.19
2018-06-08T02:10:48.543Z,964.19
2018-06-08T02:11:48.472Z,964.23
2018-06-08T02:12:48.395Z,964.25
2018-06-08T02:13:48.352Z,964.22
2018-06-08T02:14:48.311Z,964.22
2018-06-08T02:15:48.267Z,964.21
2018-06-08T02:16:48.253Z,964.19
2018-06-08T02:17:48.218Z,964.24
2018-06-08T02:18:48.132Z,964.21
2018-06-08T02:19:48.088Z,964.20
2018-06-08T02:20:48.045Z,964.23
2018-06-08T02:21:48.003Z,964.24
2018-06-08T02:22:47.988Z,964.20
2018-06-08T02:23:47.908Z,964.16
2018-06-08T02:24:47.864Z,964.20
2018-06-08T02:25:47.821Z,964.15
2018-06-08T02:26:47.777Z,964.18
2018-06-08T02:27:47.763Z,964.19
2018-06-08T02:28:47.690Z,964.16
2018-06-08T02:29:47.645Z,964.15
2018-06-08T02:30:47.645Z,964.15
2018-06-08T02:31:47.557Z,964.13
2018-06-08T02:32:47.510Z,964.08
2018-06-08T02:33:47.468Z,964.09
2018-06-08T02:34:47.428Z,964.11
2018-06-08T02:35:47.426Z,964.09
2018-06-08T02:36:47.346Z,964.09
2018-06-08T02:37:47.294Z,964.12
2018-06-08T02:38:47.246Z,964.12
2018-06-08T02:39:47.209Z,964.07
2018-06-08T02:40:47.193Z,964.03
2018-06-08T02:41:47.114Z,964.05
2018-06-08T02:42:47.073Z,964.05
2018-06-08T02:43:47.068Z,964.04
2018-06-08T02:44:46.985Z,964.04
2018-06-08T02:45:46.940Z,964.03
2018-06-08T02:46:46.894Z,964.01
2018-06-08T02:47:46.882Z,964.03
2018-06-08T02:48:46.807Z,964.02
2018-06-08T02:49:46.761Z,964.03
2018-06-08T02:50:46.724Z,964.03
2018-06-08T02:51:46.677Z,964.02
2018-06-08T02:52:46.661Z,964.03
2018-06-08T02:53:46.587Z,964.03
2018-06-08T02:54:46.544Z,964.01
2018-06-08T02:55:46.497Z,964.03
2018-06-08T02:56:46.453Z,964.02
2018-06-08T02:57:46.451Z,964.04
2018-06-08T02:58:46.365Z,964.03
2018-06-08T02:59:46.322Z,964.02
2018-06-08T03:00:46.280Z,964.02
2018-06-08T03:01:46.239Z,964.03
2018-06-08T03:02:46.229Z,964.03
2018-06-08T03:03:46.144Z,964.07
2018-06-08T03:04:46.101Z,964.09
2018-06-08T03:05:46.057Z,964.08
2018-06-08T03:06:46.014Z,964.06
2018-06-08T03:07:46.002Z,964.06
2018-06-08T03:08:45.921Z,964.07
2018-06-08T03:09:45.882Z,964.04
2018-06-08T03:10:45.863Z,964.05
2018-06-08T03:11:45.823Z,964.06
2018-06-08T03:15:48.720Z,964.03
2018-06-08T03:18:21.868Z,964.06
2018-06-08T03:19:20.101Z,964.07
2018-06-08T03:20:20.050Z,964.05
2018-06-08T03:21:22.836Z,964.05
2018-06-08T03:22:19.996Z,964.06
2018-06-08T03:23:19.923Z,964.04
2018-06-08T03:24:19.875Z,964.01
2018-06-08T03:25:19.859Z,964.05
2018-06-08T03:26:19.789Z,964.04
2018-06-08T03:27:19.773Z,964.08
2018-06-08T03:28:19.698Z,964.07
2018-06-08T03:29:19.684Z,964.08
2018-06-08T03:30:19.609Z,964.05
2018-06-08T03:31:19.562Z,964.09
2018-06-08T03:32:19.519Z,964.08
2018-06-08T03:33:19.473Z,964.08
2018-06-08T03:34:19.463Z,964.10
2018-06-08T03:35:19.385Z,964.09
2018-06-08T03:36:19.342Z,964.07
2018-06-08T03:37:19.295Z,964.07
2018-06-08T03:38:19.287Z,964.10
2018-06-08T03:39:19.209Z,964.11
2018-06-08T03:40:19.164Z,964.07
2018-06-08T03:41:19.120Z,964.09
2018-06-08T03:42:19.108Z,964.14
2018-06-08T03:43:19.033Z,964.16
2018-06-08T03:44:18.989Z,964.15
2018-06-08T03:45:18.942Z,964.19
2018-06-08T03:46:18.901Z,964.17
2018-06-08T03:47:18.886Z,964.19
2018-06-08T03:48:18.811Z,964.23
2018-06-08T03:49:18.766Z,964.19
2018-06-08T03:50:18.725Z,964.20
2018-06-08T03:51:18.677Z,964.20
2018-06-08T03:52:18.666Z,964.17
2018-06-08T03:53:18.587Z,964.16
2018-06-08T03:54:18.543Z,964.16
2018-06-08T03:55:18.500Z,964.16
2018-06-08T03:56:18.456Z,964.17
2018-06-08T03:57:18.444Z,964.18
2018-06-08T03:58:18.366Z,964.20
2018-06-08T03:59:18.322Z,964.17
2018-06-08T04:00:18.278Z,964.20
2018-06-08T04:01:18.230Z,964.21
2018-06-08T04:02:18.219Z,964.20
2018-06-08T04:03:18.179Z,964.17
2018-06-08T04:04:18.100Z,964.15
2018-06-08T04:05:18.054Z,964.16
2018-06-08T04:06:18.012Z,964.16
2018-06-08T04:07:17.966Z,964.16
2018-06-08T04:08:17.961Z,964.17
2018-06-08T04:09:17.876Z,964.18
2018-06-08T04:10:17.833Z,964.17
2018-06-08T04:11:17.788Z,964.24
2018-06-08T04:12:17.742Z,964.23
2018-06-08T04:13:17.731Z,964.22
2018-06-08T04:14:17.690Z,964.22
2018-06-08T04:15:17.610Z,964.23
2018-06-08T04:16:17.564Z,964.25
2018-06-08T04:17:17.530Z,964.30
2018-06-08T04:18:17.494Z,964.25
2018-06-08T04:19:17.463Z,964.28
2018-06-08T04:20:17.385Z,964.26
2018-06-08T04:21:17.373Z,964.32
2018-06-08T04:22:17.297Z,964.33
2018-06-08T04:23:17.252Z,964.32
2018-06-08T04:24:17.209Z,964.29
2018-06-08T04:25:17.167Z,964.32
2018-06-08T04:26:17.153Z,964.29
2018-06-08T04:27:17.105Z,964.30
2018-06-08T04:28:17.029Z,964.27
2018-06-08T04:29:16.983Z,964.32
2018-06-08T04:30:16.973Z,964.30
2018-06-08T04:31:16.901Z,964.33
2018-06-08T04:32:16.884Z,964.30
2018-06-08T04:33:16.806Z,964.33
2018-06-08T04:34:16.764Z,964.31
2018-06-08T04:35:16.718Z,964.30
2018-06-08T04:36:16.673Z,964.34
2018-06-08T04:37:16.666Z,964.34
2018-06-08T04:38:16.586Z,964.29
2018-06-08T04:39:16.572Z,964.30
2018-06-08T04:40:16.497Z,964.33
2018-06-08T04:41:16.453Z,964.33
2018-06-08T04:42:16.409Z,964.31
2018-06-08T04:43:16.396Z,964.35
2018-06-08T04:44:16.320Z,964.33
2018-06-08T04:45:16.275Z,964.33
2018-06-08T04:46:16.233Z,964.35
2018-06-08T04:47:16.223Z,964.35
2018-06-08T04:48:16.143Z,964.36
2018-06-08T04:49:16.099Z,964.36
2018-06-08T04:50:16.086Z,964.40
2018-06-08T04:51:16.019Z,964.37
2018-06-08T04:52:15.998Z,964.37
2018-06-08T04:53:15.923Z,964.38
2018-06-08T04:54:15.880Z,964.39
2018-06-08T04:55:15.834Z,964.36
2018-06-08T04:56:15.825Z,964.39
2018-06-08T04:57:15.795Z,964.37
2018-06-08T04:58:15.701Z,964.39
2018-06-08T04:59:15.659Z,964.42
2018-06-08T05:00:15.617Z,964.40
2018-06-08T05:01:15.574Z,964.43
2018-06-08T05:02:15.558Z,964.45
2018-06-08T05:03:15.488Z,964.44
2018-06-08T05:04:15.477Z,964.44
2018-06-08T05:05:15.431Z,964.43
2018-06-08T05:06:15.353Z,964.41
2018-06-08T05:07:15.309Z,964.42
2018-06-08T05:08:15.276Z,964.42
2018-06-08T05:09:15.222Z,964.43
2018-06-08T05:10:15.215Z,964.41
2018-06-08T05:11:15.132Z,964.37
2018-06-08T05:12:15.090Z,964.37
2018-06-08T05:13:15.048Z,964.40
2018-06-08T05:14:15.004Z,964.41
2018-06-08T05:15:14.992Z,964.41
2018-06-08T05:16:14.915Z,964.42
2018-06-08T05:17:14.869Z,964.43
2018-06-08T05:18:14.829Z,964.42
2018-06-08T05:19:14.821Z,964.42
2018-06-08T05:20:14.782Z,964.41
2018-06-08T05:21:14.698Z,964.44
2018-06-08T05:22:14.655Z,964.46
2018-06-08T05:23:14.614Z,964.47
2018-06-08T05:24:14.564Z,964.49
2018-06-08T05:25:14.560Z,964.46
2018-06-08T05:26:14.534Z,964.42
2018-06-08T05:27:14.435Z,964.45
2018-06-08T05:28:14.393Z,964.40
2018-06-08T05:29:14.349Z,964.43
2018-06-08T05:30:14.338Z,964.42
2018-06-08T05:31:14.265Z,964.40
2018-06-08T05:32:14.217Z,964.44
2018-06-08T05:33:14.177Z,964.41
2018-06-08T05:34:14.131Z,964.46
2018-06-08T05:35:14.121Z,964.45
2018-06-08T05:36:14.103Z,964.46
2018-06-08T05:37:14.036Z,964.45
2018-06-08T05:38:13.958Z,964.43
2018-06-08T05:39:13.919Z,964.41
2018-06-08T05:40:13.875Z,964.42
2018-06-08T05:41:13.828Z,964.44
2018-06-08T05:42:13.819Z,964.40
2018-06-08T05:43:13.741Z,964.41
2018-06-08T05:44:13.700Z,964.43
2018-06-08T05:45:13.656Z,964.41
2018-06-08T05:46:13.642Z,964.38
2018-06-08T05:47:13.598Z,964.41
2018-06-08T05:48:13.581Z,964.41
2018-06-08T05:49:13.484Z,964.43
2018-06-08T05:50:13.480Z,964.45
2018-06-08T05:51:13.401Z,964.49
2018-06-08T05:52:13.354Z,964.50
2018-06-08T05:53:13.313Z,964.48
2018-06-08T05:54:13.323Z,964.52
2018-06-08T05:55:13.254Z,964.53
2018-06-08T05:56:13.217Z,964.52
2018-06-08T05:57:13.134Z,964.49
2018-06-08T05:58:13.090Z,964.56
2018-06-08T05:59:13.054Z,964.51
2018-06-08T06:00:13.010Z,964.52
2018-06-08T06:01:13.046Z,964.53
2018-06-08T06:02:12.918Z,964.48
2018-06-08T06:03:12.875Z,964.50
2018-06-08T06:04:12.865Z,964.49
2018-06-08T06:05:12.790Z,964.48
2018-06-08T06:06:12.748Z,964.48
2018-06-08T06:07:12.709Z,964.46
2018-06-08T06:08:12.714Z,964.41
2018-06-08T06:09:12.652Z,964.42
2018-06-08T06:10:12.575Z,964.41
2018-06-08T06:11:12.532Z,964.42
2018-06-08T06:12:12.523Z,964.42
2018-06-08T06:13:12.449Z,964.41
2018-06-08T06:14:12.408Z,964.43
2018-06-08T06:15:12.361Z,964.41
2018-06-08T06:16:12.321Z,964.43
2018-06-08T06:17:12.305Z,964.43
2018-06-08T06:18:12.266Z,964.40
2018-06-08T06:19:12.192Z,964.40
2018-06-08T06:20:12.147Z,964.41
2018-06-08T06:21:12.104Z,964.43
2018-06-08T06:22:12.062Z,964.47
2018-06-08T06:23:12.058Z,964.48
2018-06-08T06:24:11.975Z,964.48
2018-06-08T06:25:11.933Z,964.50
2018-06-08T06:26:11.892Z,964.48
2018-06-08T06:27:11.849Z,964.49
2018-06-08T06:28:11.839Z,964.45
2018-06-08T06:29:11.771Z,964.47
2018-06-08T06:30:11.724Z,964.46
2018-06-08T06:31:11.714Z,964.45
2018-06-08T06:32:11.638Z,964.43
2018-06-08T06:33:11.593Z,964.46
2018-06-08T06:34:11.586Z,964.48
2018-06-08T06:35:11.511Z,964.47
2018-06-08T06:36:11.467Z,964.49
2018-06-08T06:37:11.424Z,964.47
2018-06-08T06:38:11.388Z,964.45
2018-06-08T06:39:11.377Z,964.44
2018-06-08T06:40:11.349Z,964.45
2018-06-08T06:41:11.260Z,964.48
2018-06-08T06:42:11.220Z,964.42
2018-06-08T06:43:11.174Z,964.43
2018-06-08T06:44:11.130Z,964.42
2018-06-08T06:45:11.136Z,964.42
2018-06-08T06:46:11.048Z,964.41
2018-06-08T06:47:11.007Z,964.43
2018-06-08T06:48:10.962Z,964.44
2018-06-08T06:49:10.920Z,964.43
2018-06-08T06:50:10.914Z,964.44
2018-06-08T06:51:10.837Z,964.47
2018-06-08T06:52:10.796Z,964.48
2018-06-08T06:53:10.789Z,964.49
2018-06-08T06:54:10.746Z,964.50
2018-06-08T06:55:10.672Z,964.51
2018-06-08T06:56:10.629Z,964.53
2018-06-08T06:57:10.589Z,964.50
2018-06-08T06:58:10.577Z,964.50
2018-06-08T06:59:10.505Z,964.48
2018-06-08T07:00:10.465Z,964.49
2018-06-08T07:01:10.422Z,964.49
2018-06-08T07:02:10.409Z,964.50
2018-06-08T07:03:10.371Z,964.48
2018-06-08T07:04:10.305Z,964.50
2018-06-08T07:05:10.259Z,964.52
2018-06-08T07:06:10.246Z,964.55
2018-06-08T07:07:10.171Z,964.50
2018-06-08T07:08:10.162Z,964.53
2018-06-08T07:09:10.090Z,964.54
2018-06-08T07:10:10.047Z,964.59
2018-06-08T07:11:10.007Z,964.60
2018-06-08T07:12:09.968Z,964.61
2018-06-08T07:13:09.959Z,964.62
2018-06-08T07:14:09.884Z,964.62
2018-06-08T07:15:09.844Z,964.61
2018-06-08T07:16:09.804Z,964.65
2018-06-08T07:17:09.761Z,964.64
2018-06-08T07:18:09.762Z,964.64
2018-06-08T07:19:09.679Z,964.66
2018-06-08T07:20:09.640Z,964.68
2018-06-08T07:21:09.598Z,964.70
2018-06-08T07:22:09.558Z,964.71
2018-06-08T07:23:09.548Z,964.72
2018-06-08T07:24:09.474Z,964.70
2018-06-08T07:25:09.432Z,964.69
2018-06-08T07:26:09.391Z,964.74
2018-06-08T07:27:09.353Z,964.77
2018-06-08T07:28:09.344Z,964.80
2018-06-08T07:29:09.282Z,964.75
2018-06-08T07:30:09.233Z,964.78
2018-06-08T07:31:09.190Z,964.80
2018-06-08T07:32:09.150Z,964.80
2018-06-08T07:33:09.151Z,964.81
2018-06-08T07:34:09.069Z,964.79
2018-06-08T07:35:09.027Z,964.78
2018-06-08T07:36:08.989Z,964.82
2018-06-08T07:37:08.944Z,964.79
2018-06-08T07:38:08.945Z,964.80
2018-06-08T07:39:08.866Z,964.81
2018-06-08T07:40:08.886Z,964.83
2018-06-08T07:41:08.814Z,964.83
2018-06-08T07:42:08.743Z,964.84
2018-06-08T07:43:08.739Z,964.83
2018-06-08T07:44:08.665Z,964.85
2018-06-08T07:45:08.627Z,964.85
2018-06-08T07:46:08.628Z,964.82
2018-06-08T07:47:08.545Z,964.79
2018-06-08T07:48:08.504Z,964.83
2018-06-08T07:49:08.467Z,964.81
2018-06-08T07:50:08.424Z,964.84
2018-06-08T07:51:08.430Z,964.84
2018-06-08T07:52:08.343Z,964.82
2018-06-08T07:53:08.304Z,964.81
2018-06-08T07:54:08.263Z,964.84
2018-06-08T07:55:08.222Z,964.85
2018-06-08T07:56:08.216Z,964.82
2018-06-08T07:57:08.145Z,964.84
2018-06-08T07:58:08.104Z,964.84
2018-06-08T07:59:08.071Z,964.81
2018-06-08T08:00:08.062Z,964.83
2018-06-08T08:01:08.022Z,964.84
2018-06-08T08:02:07.975Z,964.85
2018-06-08T08:03:07.907Z,964.85
2018-06-08T08:04:07.865Z,964.84
2018-06-08T08:05:07.829Z,964.82
2018-06-08T08:06:07.788Z,964.77
2018-06-08T08:07:07.786Z,964.85
2018-06-08T08:08:07.713Z,964.83
2018-06-08T08:09:07.689Z,964.80
2018-06-08T08:10:07.629Z,964.77
2018-06-08T08:11:07.625Z,964.78
2018-06-08T08:12:07.554Z,964.82
2018-06-08T08:13:07.516Z,964.84
2018-06-08T08:14:07.472Z,964.81
2018-06-08T08:15:07.434Z,964.80
2018-06-08T08:16:07.433Z,964.80
2018-06-08T08:17:07.354Z,964.76
2018-06-08T08:18:07.315Z,964.77
2018-06-08T08:19:07.280Z,964.79
2018-06-08T08:20:07.237Z,964.80
2018-06-08T08:21:07.243Z,964.80
2018-06-08T08:22:07.154Z,964.83
2018-06-08T08:23:07.114Z,964.81
2018-06-08T08:24:07.083Z,964.80
2018-06-08T08:25:07.040Z,964.79
2018-06-08T08:26:07.031Z,964.81
2018-06-08T08:27:07.002Z,964.77
2018-06-08T08:28:06.924Z,964.81
2018-06-08T08:29:06.892Z,964.77
2018-06-08T08:30:06.848Z,964.79
2018-06-08T08:31:06.803Z,964.78
2018-06-08T08:32:06.795Z,964.78
2018-06-08T08:33:06.724Z,964.82
2018-06-08T08:34:06.687Z,964.81
2018-06-08T08:35:06.653Z,964.88
2018-06-08T08:36:06.608Z,964.89
2018-06-08T08:37:06.600Z,964.83
2018-06-08T08:38:06.528Z,964.86
2018-06-08T08:39:06.490Z,964.84
2018-06-08T08:40:06.449Z,964.85
2018-06-08T08:41:06.411Z,964.86
2018-06-08T08:42:06.413Z,964.81
2018-06-08T08:43:06.331Z,964.78
2018-06-08T08:44:06.291Z,964.83
2018-06-08T08:45:06.249Z,964.75
2018-06-08T08:46:06.217Z,964.82
2018-06-08T08:47:06.213Z,964.83
2018-06-08T08:48:06.136Z,964.84
2018-06-08T08:49:06.099Z,964.82
2018-06-08T08:50:06.061Z,964.83
2018-06-08T08:51:06.052Z,964.83
2018-06-08T08:52:06.026Z,964.85
2018-06-08T08:53:05.939Z,964.86
2018-06-08T08:54:05.900Z,964.81
2018-06-08T08:55:05.864Z,964.84
2018-06-08T08:56:05.855Z,964.86
2018-06-08T08:57:05.897Z,964.83
2018-06-08T08:58:05.749Z,964.84
2018-06-08T08:59:05.707Z,964.87
2018-06-08T09:00:05.672Z,964.85
2018-06-08T09:01:05.633Z,964.90
2018-06-08T09:02:05.622Z,964.86
2018-06-08T09:03:05.552Z,964.87
2018-06-08T09:04:05.514Z,964.88
2018-06-08T09:05:05.476Z,964.90
2018-06-08T09:06:05.469Z,964.88
2018-06-08T09:07:05.431Z,964.86
2018-06-08T09:08:05.360Z,964.88
2018-06-08T09:09:05.321Z,964.85
2018-06-08T09:10:05.283Z,964.84
2018-06-08T09:11:05.244Z,964.84
2018-06-08T09:12:05.249Z,964.83
2018-06-08T09:13:05.171Z,964.85
2018-06-08T09:14:05.130Z,964.79
2018-06-08T09:15:05.096Z,964.78
2018-06-08T09:16:05.055Z,964.77
2018-06-08T09:17:05.051Z,964.80
2018-06-08T09:18:04.978Z,964.79
2018-06-08T09:19:04.989Z,964.78
2018-06-08T09:20:04.910Z,964.75
2018-06-08T09:21:04.863Z,964.75
2018-06-08T09:22:04.825Z,964.76
2018-06-08T09:23:04.786Z,964.76
2018-06-08T09:24:04.881Z,964.76
2018-06-08T09:25:04.715Z,964.75
2018-06-08T09:26:04.676Z,964.72
2018-06-08T09:27:04.636Z,964.70
2018-06-08T09:28:04.600Z,964.68
2018-06-08T09:29:04.617Z,964.67
2018-06-08T09:30:04.524Z,964.66
2018-06-08T09:31:04.487Z,964.62
2018-06-08T09:32:04.447Z,964.64
2018-06-08T09:33:04.420Z,964.65
2018-06-08T09:34:04.411Z,964.63
2018-06-08T09:35:04.339Z,964.66
2018-06-08T09:36:04.349Z,964.63
2018-06-08T09:37:04.258Z,964.67
2018-06-08T09:38:04.225Z,964.71
2018-06-08T09:39:04.187Z,964.67
2018-06-08T09:40:04.218Z,964.67
2018-06-08T09:41:04.145Z,964.67
2018-06-08T09:42:04.114Z,964.64
2018-06-08T09:43:04.075Z,964.59
2018-06-08T09:44:04.000Z,964.64
2018-06-08T09:45:03.964Z,964.69
2018-06-08T09:46:03.932Z,964.66
2018-06-08T09:47:03.931Z,964.65
2018-06-08T09:48:03.856Z,964.64
2018-06-08T09:49:03.848Z,964.62
2018-06-08T09:50:03.781Z,964.62
2018-06-08T09:51:03.746Z,964.62
2018-06-08T09:52:03.710Z,964.58
2018-06-08T09:53:03.672Z,964.60
2018-06-08T09:54:03.675Z,964.62
2018-06-08T09:55:03.601Z,964.59
2018-06-08T09:56:03.563Z,964.58
2018-06-08T09:57:03.524Z,964.57
2018-06-08T09:58:03.492Z,964.57
2018-06-08T09:59:03.492Z,964.57
2018-06-08T10:00:03.424Z,964.54
2018-06-08T10:01:03.386Z,964.54
2018-06-08T10:02:03.347Z,964.49
2018-06-08T10:03:03.310Z,964.51
2018-06-08T10:04:03.309Z,964.49
2018-06-08T10:05:03.239Z,964.46
2018-06-08T10:06:03.203Z,964.48
2018-06-08T10:07:03.166Z,964.49
2018-06-08T10:08:03.134Z,964.45
2018-06-08T10:09:03.141Z,964.42
2018-06-08T10:10:03.058Z,964.43
2018-06-08T10:11:03.019Z,964.40
2018-06-08T10:12:02.985Z,964.40
2018-06-08T10:13:02.953Z,964.37
2018-06-08T10:14:02.952Z,964.38
2018-06-08T10:15:02.876Z,964.40
2018-06-08T10:16:02.842Z,964.34
2018-06-08T10:17:02.807Z,964.36
2018-06-08T10:18:02.766Z,964.37
2018-06-08T10:19:02.772Z,964.34
2018-06-08T10:20:02.699Z,964.31
2018-06-08T10:21:02.661Z,964.31
2018-06-08T10:22:02.644Z,964.31
2018-06-08T10:23:02.585Z,964.33
2018-06-08T10:24:02.583Z,964.33
2018-06-08T10:25:02.514Z,964.38
2018-06-08T10:26:02.475Z,964.39
2018-06-08T10:27:02.469Z,964.37
2018-06-08T10:28:02.406Z,964.34
2018-06-08T10:29:02.366Z,964.33
2018-06-08T10:30:02.327Z,964.31
2018-06-08T10:31:02.325Z,964.31
2018-06-08T10:32:02.254Z,964.32
2018-06-08T10:33:02.217Z,964.30
2018-06-08T10:34:02.226Z,964.34
2018-06-08T10:35:02.141Z,964.34
2018-06-08T10:36:02.149Z,964.28
2018-06-08T10:37:02.069Z,964.28
2018-06-08T10:38:02.037Z,964.28
2018-06-08T10:39:01.999Z,964.28
2018-06-08T10:40:02.023Z,964.25
2018-06-08T10:41:01.963Z,964.19
2018-06-08T10:42:01.888Z,964.17
2018-06-08T10:43:01.886Z,964.21
2018-06-08T10:44:01.815Z,964.16
2018-06-08T10:45:01.787Z,964.13
2018-06-08T10:46:01.746Z,964.12
2018-06-08T10:47:01.710Z,964.12
2018-06-08T10:48:01.715Z,964.11
2018-06-08T10:49:01.640Z,964.15
2018-06-08T10:50:01.598Z,964.15
2018-06-08T10:51:01.566Z,964.17
2018-06-08T10:52:01.527Z,964.15
2018-06-08T10:53:01.518Z,964.20
2018-06-08T10:54:01.452Z,964.16
2018-06-08T10:55:01.420Z,964.17
2018-06-08T10:56:01.380Z,964.12
2018-06-08T10:57:01.345Z,964.15
2018-06-08T10:58:01.341Z,964.16
2018-06-08T10:59:01.306Z,964.12
2018-06-08T11:00:01.240Z,964.12
2018-06-08T11:01:01.201Z,964.12
2018-06-08T11:02:01.164Z,964.12
2018-06-08T11:03:01.175Z,964.12
2018-06-08T11:04:01.096Z,964.17
2018-06-08T11:05:01.058Z,964.16
2018-06-08T11:06:01.023Z,964.11
2018-06-08T11:07:00.986Z,964.13
2018-06-08T11:08:00.990Z,964.12
2018-06-08T11:09:00.917Z,964.15
2018-06-08T11:10:00.913Z,964.13
2018-06-08T11:11:00.878Z,964.10
2018-06-08T11:12:00.818Z,964.05
2018-06-08T11:13:00.786Z,964.07
2018-06-08T11:14:00.739Z,964.05
2018-06-08T11:15:00.706Z,964.06
2018-06-08T11:16:00.696Z,964.08
2018-06-08T11:17:00.635Z,964.02
2018-06-08T11:18:00.599Z,964.02
2018-06-08T11:19:00.599Z,964.01
2018-06-08T11:20:00.532Z,964.03
2018-06-08T11:21:00.497Z,964.05
2018-06-08T11:22:00.460Z,964.02
2018-06-08T11:23:00.481Z,964.01
2018-06-08T11:24:00.396Z,963.96
2018-06-08T11:25:00.360Z,963.97
2018-06-08T11:26:00.322Z,963.92
2018-06-08T11:27:00.341Z,963.97
2018-06-08T11:28:00.276Z,963.97
2018-06-08T11:29:00.217Z,964.02
2018-06-08T11:30:00.182Z,964.01
2018-06-08T11:31:00.147Z,963.95
2018-06-08T11:32:00.144Z,963.95
2018-06-08T11:33:00.079Z,963.89
2018-06-08T11:34:00.074Z,963.86
2018-06-08T11:35:00.051Z,963.87
2018-06-08T11:35:59.975Z,963.86
2018-06-08T11:36:59.939Z,963.87
2018-06-08T11:37:59.903Z,963.84
2018-06-08T11:38:59.866Z,963.83
2018-06-08T11:39:59.862Z,963.83
2018-06-08T11:40:59.794Z,963.82
2018-06-08T11:41:59.763Z,963.83
2018-06-08T11:42:59.764Z,963.86
2018-06-08T11:43:59.687Z,963.83
2018-06-08T11:44:59.653Z,963.82
2018-06-08T11:45:59.623Z,963.86
2018-06-08T11:46:59.586Z,963.84
2018-06-08T11:47:59.595Z,963.86
2018-06-08T11:48:59.518Z,963.82
2018-06-08T11:49:59.476Z,963.83
2018-06-08T11:50:59.441Z,963.81
2018-06-08T11:51:59.403Z,963.84
2018-06-08T11:52:59.397Z,963.81
2018-06-08T11:53:59.332Z,963.80
2018-06-08T11:54:59.296Z,963.80
2018-06-08T11:55:59.294Z,963.76
2018-06-08T11:56:59.224Z,963.81
2018-06-08T11:57:59.189Z,963.77
2018-06-08T11:58:59.187Z,963.77
2018-06-08T11:59:59.118Z,963.72
2018-06-08T12:00:59.079Z,963.69
2018-06-08T12:01:59.047Z,963.70
2018-06-08T12:02:59.009Z,963.70
2018-06-08T12:03:59.006Z,963.67
2018-06-08T12:04:58.937Z,963.61
2018-06-08T12:05:58.902Z,963.62
2018-06-08T12:06:58.898Z,963.64
2018-06-08T12:07:58.828Z,963.61
2018-06-08T12:08:58.807Z,963.58
2018-06-08T12:09:58.759Z,963.60
2018-06-08T12:10:58.727Z,963.59
2018-06-08T12:11:58.729Z,963.61
2018-06-08T12:12:58.653Z,963.56
2018-06-08T12:13:58.613Z,963.55
2018-06-08T12:14:58.583Z,963.54
2018-06-08T12:15:58.550Z,963.54
2018-06-08T12:16:58.560Z,963.53
2018-06-08T12:17:58.470Z,963.51
2018-06-08T12:18:58.439Z,963.51
2018-06-08T12:19:58.399Z,963.45
2018-06-08T12:20:58.372Z,963.41
2018-06-08T12:21:58.374Z,963.41
2018-06-08T12:22:58.292Z,963.39
2018-06-08T12:23:58.303Z,963.38
2018-06-08T12:24:58.221Z,963.34
2018-06-08T12:25:58.185Z,963.41
2018-06-08T12:26:58.185Z,963.39
2018-06-08T12:27:58.116Z,963.36
2018-06-08T12:28:58.081Z,963.33
2018-06-08T12:29:58.076Z,963.37
2018-06-08T12:30:58.014Z,963.38
2018-06-08T12:31:57.981Z,963.38
2018-06-08T12:32:57.940Z,963.41